Time;durP1;ratioP1;P1;durP2;ratioP2;P2;SDS_P1;SDS_P2;PMS_P1;PMS_P2;Temp;Humidity;BMP_temperature;BMP_pressure;BME280_temperature;BME280_humidity;BME280_pressure;Samples;Min_cycle;Max_cycle;Signal;HPM_P1;HPM_P2
2022/08/23 00:01:27;;;;;;;3.95;1.10;;;;;;;23.05;55.22;98501.97;5090338;28;20060;-47
2022/08/23 00:03:55;;;;;;;3.53;1.10;;;;;;;23.10;54.67;98499.19;5090330;28;20017;-47
2022/08/23 00:06:22;;;;;;;2.47;1.02;;;;;;;23.09;54.34;98500.31;5091564;28;20081;-48
2022/08/23 00:08:50;;;;;;;3.28;0.93;;;;;;;23.03;54.65;98499.56;5090260;28;20505;-48
2022/08/23 00:11:32;;;;;;;7.63;0.90;;;;;;;23.00;54.88;98497.44;5091522;28;20081;-48
2022/08/23 00:14:01;;;;;;;6.05;0.90;;;;;;;22.97;55.01;98498.00;5091550;28;20073;-48
2022/08/23 00:16:27;;;;;;;4.35;0.95;;;;;;;22.99;55.16;98495.84;5091548;28;20492;-49
2022/08/23 00:18:53;;;;;;;6.80;1.20;;;;;;;22.91;55.04;98496.47;5090177;28;20093;-49
2022/08/23 00:21:22;;;;;;;5.03;1.30;;;;;;;22.90;55.59;98493.00;5090194;28;20028;-49
2022/08/23 00:23:47;;;;;;;9.18;1.48;;;;;;;22.85;55.31;98497.63;5091494;28;20012;-49
2022/08/23 00:26:13;;;;;;;13.55;1.30;;;;;;;22.77;55.40;98491.00;5092983;28;20558;-49
2022/08/23 00:28:40;;;;;;;4.05;1.00;;;;;;;22.70;55.60;98493.25;5095094;28;20044;-49
2022/08/23 00:31:05;;;;;;;5.15;1.10;;;;;;;22.55;56.38;98496.88;5095308;28;20023;-49
2022/08/23 00:33:31;;;;;;;3.50;1.00;;;;;;;22.50;56.49;98495.03;5093839;28;20122;-49
2022/08/23 00:35:56;;;;;;;14.00;1.20;;;;;;;22.53;56.93;98486.44;5093802;28;20059;-50
2022/08/23 00:38:24;;;;;;;3.05;0.98;;;;;;;22.61;56.69;98493.06;5095129;28;20447;-49
2022/08/23 00:40:52;;;;;;;2.03;0.73;;;;;;;22.61;56.37;98492.25;5094994;28;20489;-50
2022/08/23 00:49:14;;;;;;;8.40;3.58;;;;;;;22.62;57.13;98491.19;5094982;28;20140;-49
2022/08/23 00:52:05;;;;;;;12.93;4.65;;;;;;;22.69;56.85;98499.66;5094862;28;20016;-49
2022/08/23 00:54:33;;;;;;;3.55;2.13;;;;;;;22.68;57.26;98493.53;5065407;28;20071;-50
2022/08/23 00:57:04;;;;;;;3.35;1.40;;;;;;;22.68;57.01;98488.16;5093475;28;20028;-49
2022/08/23 00:59:31;;;;;;;5.13;1.30;;;;;;;22.67;56.95;98489.25;5094792;28;20455;-49
2022/08/23 01:01:59;;;;;;;16.15;1.80;;;;;;;22.66;57.01;98490.34;5094708;28;20027;-49
2022/08/23 01:04:30;;;;;;;4.32;1.27;;;;;;;22.70;57.26;98493.25;5093380;28;20092;-50
2022/08/23 01:07:06;;;;;;;5.25;1.73;;;;;;;22.71;57.01;98495.63;5093349;28;20051;-49
2022/08/23 01:09:32;;;;;;;6.32;1.17;;;;;;;22.72;56.83;98491.09;5093240;28;20513;-49
2022/08/23 01:12:07;;;;;;;7.20;1.10;;;;;;;22.68;57.23;98498.09;5093108;28;20020;-50
2022/08/23 01:14:41;;;;;;;5.82;1.17;;;;;;;22.66;57.37;98492.22;5094407;28;20024;-49
2022/08/23 01:17:40;;;;;;;2.05;0.80;;;;;;;22.68;57.44;98500.75;5094403;28;20024;-49
2022/08/23 01:20:12;;;;;;;6.28;1.02;;;;;;;22.72;56.75;98493.75;5075382;28;20099;-48
2022/08/23 01:22:51;;;;;;;2.28;0.73;;;;;;;22.72;56.63;98497.22;5093001;28;20032;-50
2022/08/23 01:25:20;;;;;;;7.70;1.00;;;;;;;22.67;57.24;98488.44;5094139;28;20043;-49
2022/08/23 01:27:47;;;;;;;1.67;0.70;;;;;;;22.65;57.02;98488.72;5094234;28;20517;-49
2022/08/23 01:30:16;;;;;;;3.50;0.90;;;;;;;22.65;57.37;98494.06;5092647;28;20079;-49
2022/08/23 01:32:50;;;;;;;2.08;0.82;;;;;;;22.61;57.21;98486.91;5094106;28;20448;-49
2022/08/23 01:35:17;;;;;;;1.17;0.70;;;;;;;22.54;57.39;98497.97;5094115;28;20023;-50
2022/08/23 01:37:45;;;;;;;10.98;8.25;;;;;;;22.48;57.65;98497.19;5093393;28;20078;-49
2022/08/23 01:40:12;;;;;;;170.10;152.35;;;;;;;22.45;57.76;98497.75;5092610;28;20047;-48
2022/08/23 01:42:40;;;;;;;11.38;8.07;;;;;;;22.46;57.89;98495.91;5093876;28;20034;-49
2022/08/23 01:45:12;;;;;;;1.92;1.25;;;;;;;22.49;57.77;98493.44;5094010;28;20016;-50
2022/08/23 01:47:39;;;;;;;4.93;1.40;;;;;;;22.53;57.33;98504.38;5093776;28;20039;-48
2022/08/23 01:50:06;;;;;;;10.15;2.10;;;;;;;22.47;57.60;98494.81;5093727;28;20111;-50
2022/08/23 01:52:34;;;;;;;1.52;0.88;;;;;;;22.40;57.83;98510.41;5093718;28;20020;-49
2022/08/23 01:55:00;;;;;;;2.22;1.00;;;;;;;22.37;58.05;98498.38;5093698;28;20043;-49
2022/08/23 01:57:27;;;;;;;2.75;0.77;;;;;;;22.36;58.02;98506.69;5093636;28;20059;-49
2022/08/23 01:59:54;;;;;;;4.38;1.35;;;;;;;22.34;57.94;98507.75;5093551;28;20020;-50
2022/08/23 02:02:20;;;;;;;8.23;0.98;;;;;;;22.35;57.90;98508.56;5092178;28;20731;-49
2022/08/23 02:04:46;;;;;;;3.55;1.00;;;;;;;22.35;58.32;98508.56;5093378;28;20070;-48
2022/08/23 02:07:11;;;;;;;5.95;1.10;;;;;;;22.38;58.65;98509.88;5093365;28;20042;-49
2022/08/23 02:09:40;;;;;;;11.32;1.10;;;;;;;22.42;58.11;98510.91;5093365;28;20062;-49
2022/08/23 02:12:06;;;;;;;7.13;1.10;;;;;;;22.40;58.02;98511.19;5091987;28;20035;-50
2022/08/23 02:14:32;;;;;;;5.45;1.30;;;;;;;22.44;58.39;98516.78;5091916;28;20528;-49
2022/08/23 02:16:58;;;;;;;5.63;1.10;;;;;;;22.41;57.86;98515.44;5093197;28;20020;-49
2022/08/23 02:19:24;;;;;;;8.63;0.93;;;;;;;22.32;58.31;98517.94;5093218;28;20024;-49
2022/08/23 02:21:50;;;;;;;7.90;1.63;;;;;;;22.30;58.83;98519.31;5091799;28;20140;-49
2022/08/23 02:24:19;;;;;;;2.20;0.90;;;;;;;22.31;58.29;98516.34;5093091;28;20058;-49
2022/08/23 02:26:48;;;;;;;9.40;1.50;;;;;;;22.25;58.88;98522.00;5091607;28;20027;-50
2022/08/23 02:29:16;;;;;;;2.17;0.90;;;;;;;22.16;58.49;98529.03;5091415;28;20044;-50
2022/08/23 02:31:45;;;;;;;5.47;1.58;;;;;;;22.03;58.90;98525.09;5092876;28;20412;-49
2022/08/23 02:34:13;;;;;;;4.30;1.10;;;;;;;21.98;59.64;98523.28;5091602;28;20132;-49
2022/08/23 02:36:39;;;;;;;5.50;1.27;;;;;;;22.05;59.38;98525.63;5091515;28;20402;-49
2022/08/23 02:39:07;;;;;;;1.55;0.80;;;;;;;22.08;59.13;98533.88;5092811;28;20472;-49
2022/08/23 02:41:33;;;;;;;2.28;0.90;;;;;;;22.05;59.00;98529.09;5092688;28;20031;-48
2022/08/23 02:43:59;;;;;;;3.25;0.90;;;;;;;22.08;59.18;98523.19;5091393;28;20042;-49
2022/08/23 02:46:25;;;;;;;4.68;1.10;;;;;;;22.08;59.17;98525.88;5091276;28;20020;-49
2022/08/23 02:48:51;;;;;;;1.52;0.80;;;;;;;22.11;59.09;98517.31;5091810;28;20016;-49
2022/08/23 02:51:18;;;;;;;382.88;346.17;;;;;;;22.09;59.02;98524.81;5092544;28;20461;-49
2022/08/23 02:53:44;;;;;;;731.83;617.42;;;;;;;22.12;58.69;98524.22;5092519;28;20110;-49
2022/08/23 02:56:12;;;;;;;135.07;106.53;;;;;;;22.11;59.28;98519.16;5092483;28;20031;-49
2022/08/23 02:58:38;;;;;;;10.38;6.65;;;;;;;22.06;58.79;98517.34;5092427;28;20028;-49
2022/08/23 03:01:04;;;;;;;9.45;5.97;;;;;;;22.02;58.86;98516.28;5091034;28;20107;-49
2022/08/23 03:03:30;;;;;;;8.20;3.17;;;;;;;21.99;59.21;98518.72;5091115;28;20078;-48
2022/08/23 03:05:56;;;;;;;6.45;3.03;;;;;;;22.00;58.95;98523.78;5092268;28;20426;-49
2022/08/23 03:08:23;;;;;;;6.13;2.22;;;;;;;21.93;59.31;98524.13;5090995;28;20089;-49
2022/08/23 03:10:51;;;;;;;7.97;2.60;;;;;;;21.91;59.60;98522.78;5092303;28;20020;-50
2022/08/23 03:13:19;;;;;;;5.88;1.95;;;;;;;21.94;59.54;98519.56;5092186;28;20020;-49
2022/08/23 03:15:45;;;;;;;5.95;1.42;;;;;;;21.94;59.58;98535.59;5092113;28;20043;-49
2022/08/23 03:18:11;;;;;;;6.38;1.67;;;;;;;21.89;59.60;98528.44;5090834;28;20111;-49
2022/08/23 03:20:40;;;;;;;9.43;1.50;;;;;;;21.81;59.62;98533.53;5090873;28;20051;-49
2022/08/23 03:23:08;;;;;;;3.25;1.25;;;;;;;21.78;60.46;98528.78;5092018;28;20023;-49
2022/08/23 03:25:34;;;;;;;9.07;1.30;;;;;;;21.76;60.11;98531.72;5090658;28;20024;-50
2022/08/23 03:28:04;;;;;;;5.47;1.00;;;;;;;21.75;60.33;98535.44;5092051;28;20024;-50
2022/08/23 03:30:30;;;;;;;2.15;0.80;;;;;;;21.72;60.44;98528.00;5073650;28;20043;-49
2022/08/23 03:32:56;;;;;;;3.70;1.20;;;;;;;21.73;60.50;98534.94;5090633;28;20024;-49
2022/08/23 03:35:22;;;;;;;6.90;1.55;;;;;;;21.72;60.47;98538.69;5091965;28;20038;-49
2022/08/23 03:37:47;;;;;;;5.85;1.60;;;;;;;21.68;60.80;98541.09;5091868;28;20016;-48
2022/08/23 03:40:13;;;;;;;5.15;1.27;;;;;;;21.74;60.39;98550.69;5090533;28;20035;-49
2022/08/23 03:42:39;;;;;;;6.78;1.58;;;;;;;21.76;60.45;98546.94;5091880;28;20073;-48
2022/08/23 03:45:05;;;;;;;2.38;1.10;;;;;;;21.81;60.39;98538.88;5091769;28;20597;-49
2022/08/23 03:47:31;;;;;;;6.03;1.27;;;;;;;21.81;59.99;98545.06;5090432;28;20516;-49
2022/08/23 03:49:57;;;;;;;5.53;1.33;;;;;;;21.81;60.21;98546.91;5091848;28;20020;-49
2022/08/23 03:52:23;;;;;;;6.95;1.20;;;;;;;21.79;60.32;98543.72;5091773;28;20019;-49
2022/08/23 03:54:48;;;;;;;2.70;0.93;;;;;;;21.78;60.31;98550.16;5091734;28;20020;-49
2022/08/23 03:57:14;;;;;;;7.47;1.20;;;;;;;21.78;60.34;98547.47;5090420;28;20397;-49
2022/08/23 03:59:41;;;;;;;5.25;1.15;;;;;;;21.80;60.36;98542.66;5091165;28;20026;-49
2022/08/23 04:02:07;;;;;;;10.40;2.05;;;;;;;21.81;60.43;98545.06;5095739;28;20030;-49
2022/08/23 04:04:34;;;;;;;6.35;1.10;;;;;;;21.86;60.40;98549.56;5095665;28;20028;-49
2022/08/23 04:06:59;;;;;;;8.38;1.20;;;;;;;21.88;60.33;98553.53;5095755;28;20031;-49
2022/08/23 04:09:25;;;;;;;5.65;1.27;;;;;;;21.86;60.49;98552.22;5095644;28;20024;-49
2022/08/23 04:11:52;;;;;;;5.95;1.23;;;;;;;21.85;60.31;98556.78;5094359;28;20394;-49
2022/08/23 04:14:18;;;;;;;5.22;1.33;;;;;;;21.82;60.84;98565.34;5095607;28;20024;-49
2022/08/23 04:16:44;;;;;;;6.20;1.30;;;;;;;21.85;60.55;98562.13;5095491;28;20027;-49
2022/08/23 04:19:12;;;;;;;4.20;1.30;;;;;;;21.83;60.54;98566.13;5094220;28;20028;-49
2022/08/23 04:21:41;;;;;;;4.03;0.80;;;;;;;21.79;60.33;98568.53;5095478;28;20016;-49
2022/08/23 04:24:07;;;;;;;14.60;2.20;;;;;;;21.69;60.49;98569.44;5095627;28;20032;-49
2022/08/23 04:26:33;;;;;;;721.25;646.53;;;;;;;21.61;60.76;98561.19;5095262;28;20111;-49
2022/08/23 04:28:59;;;;;;;386.85;351.60;;;;;;;21.55;61.33;98568.44;5093645;28;20140;-49
2022/08/23 04:31:25;;;;;;;78.03;70.32;;;;;;;21.53;61.32;98575.91;5093910;28;20056;-49
2022/08/23 04:33:57;;;;;;;35.85;32.75;;;;;;;21.52;61.71;98577.78;5095236;28;20085;-49
2022/08/23 04:36:23;;;;;;;7.75;4.15;;;;;;;21.49;61.45;98574.84;5095170;28;20035;-49
2022/08/23 04:38:49;;;;;;;8.95;3.60;;;;;;;21.47;62.02;98577.00;5093841;28;20024;-49
2022/08/23 04:43:59;;;;;;;7.17;2.33;;;;;;;21.69;61.70;98589.97;5095163;28;20042;-49
2022/08/23 04:46:24;;;;;;;4.85;1.90;;;;;;;21.71;61.17;98593.16;5093546;28;20028;-49
2022/08/23 04:48:50;;;;;;;5.93;1.90;;;;;;;21.64;61.69;98590.81;5094981;28;20127;-49
2022/08/23 04:51:16;;;;;;;4.60;1.40;;;;;;;21.55;61.84;98595.16;5094880;28;20027;-49
2022/08/23 04:53:43;;;;;;;3.05;1.25;;;;;;;21.49;61.83;98604.22;5093490;28;20114;-49
2022/08/23 04:56:09;;;;;;;3.67;1.63;;;;;;;21.51;62.08;98605.56;5093498;28;20409;-50
2022/08/23 04:58:35;;;;;;;5.88;1.20;;;;;;;21.57;61.97;98608.19;5093435;28;20020;-50
2022/08/23 05:01:06;;;;;;;7.47;1.27;;;;;;;21.58;61.64;98610.59;5093336;28;20088;-49
2022/08/23 05:03:32;;;;;;;5.28;1.23;;;;;;;21.57;62.00;98606.34;5094965;28;20040;-48
2022/08/23 05:05:58;;;;;;;2.80;1.30;;;;;;;21.53;61.80;98607.94;5093184;28;20562;-49
2022/08/23 05:08:24;;;;;;;7.32;1.30;;;;;;;21.57;61.71;98597.53;5093277;28;20024;-49
2022/08/23 05:10:50;;;;;;;4.82;1.50;;;;;;;21.71;61.51;98599.34;5092839;28;20401;-49
2022/08/23 05:13:16;;;;;;;20.52;2.25;;;;;;;22.17;60.57;98594.75;5092548;28;20028;-49
2022/08/23 05:15:43;;;;;;;7.93;2.28;;;;;;;22.93;58.51;98594.13;5094447;28;20040;-49
2022/08/23 05:18:09;;;;;;;7.40;1.80;;;;;;;23.52;56.47;98599.38;5094379;28;20043;-50
2022/08/23 05:20:35;;;;;;;6.50;1.48;;;;;;;23.95;55.28;98596.69;5093249;28;20066;-50
2022/08/23 05:23:01;;;;;;;5.65;1.50;;;;;;;24.45;53.73;98601.56;5094281;28;20037;-50
2022/08/23 05:25:48;;;;;;;8.73;1.33;;;;;;;24.86;52.47;98601.66;5092856;28;20024;-49
2022/08/23 05:28:13;;;;;;;6.07;1.38;;;;;;;25.33;51.11;98595.44;5094050;28;20463;-48
2022/08/23 05:30:39;;;;;;;21.98;2.17;;;;;;;25.69;50.37;98590.88;5093941;28;20036;-47
2022/08/23 05:33:05;;;;;;;18.02;1.83;;;;;;;26.08;49.34;98592.22;5094117;28;20016;-47
2022/08/23 05:35:31;;;;;;;12.13;1.60;;;;;;;26.31;48.38;98593.00;5092789;28;20051;-47
2022/08/23 05:37:59;;;;;;;11.70;1.65;;;;;;;26.56;47.31;98596.19;5092702;28;20505;-49
2022/08/23 05:40:28;;;;;;;18.20;2.40;;;;;;;26.85;46.69;98603.78;5093878;28;20398;-51
2022/08/23 05:42:54;;;;;;;15.73;2.20;;;;;;;27.03;46.42;98607.34;5093914;28;20028;-47
2022/08/23 05:45:20;;;;;;;12.52;1.50;;;;;;;27.26;45.45;98613.47;5093788;28;20405;-49
2022/08/23 05:47:45;;;;;;;18.15;1.65;;;;;;;27.22;45.84;98606.31;5093834;28;20052;-49
2022/08/23 05:50:12;;;;;;;18.52;1.98;;;;;;;27.18;46.08;98606.13;5093748;28;20119;-49
2022/08/23 05:52:39;;;;;;;10.48;1.30;;;;;;;27.18;45.91;98603.44;5093718;28;20386;-48
2022/08/23 05:55:06;;;;;;;4.00;1.15;;;;;;;27.21;45.93;98604.72;5093633;28;20032;-50
2022/08/23 05:57:35;;;;;;;10.77;1.20;;;;;;;27.49;45.30;98606.09;5093588;28;20027;-49
2022/08/23 06:00:01;;;;;;;6.82;1.65;;;;;;;27.83;44.51;98607.25;5092218;28;20028;-49
2022/08/23 06:02:27;;;;;;;6.07;1.83;;;;;;;28.38;43.26;98615.84;5093443;28;20023;-50
2022/08/23 06:04:53;;;;;;;9.93;1.55;;;;;;;28.94;41.79;98615.91;5093438;28;20032;-49
2022/08/23 06:07:18;;;;;;;3.17;0.98;;;;;;;29.36;40.82;98616.03;5092077;28;20027;-49
2022/08/23 06:09:44;;;;;;;9.10;1.40;;;;;;;29.94;39.62;98614.41;5092140;28;20024;-49
2022/08/23 06:12:10;;;;;;;6.63;1.30;;;;;;;30.37;38.68;98618.69;5093259;28;20032;-49
2022/08/23 06:14:35;;;;;;;5.43;1.00;;;;;;;30.80;37.73;98614.72;5093305;28;20047;-48
2022/08/23 06:17:04;;;;;;;12.25;1.27;;;;;;;31.21;36.67;98612.16;5093279;28;20028;-48
2022/08/23 06:19:30;;;;;;;4.75;1.05;;;;;;;31.59;36.25;98627.31;5091946;28;20421;-47
2022/08/23 06:21:55;;;;;;;5.65;1.20;;;;;;;31.96;35.66;98616.38;5093219;28;20024;-49
2022/08/23 06:24:22;;;;;;;3.22;1.30;;;;;;;32.27;34.24;98621.16;5091785;28;20024;-49
2022/08/23 06:26:47;;;;;;;8.70;1.65;;;;;;;32.52;33.64;98627.25;5093254;28;20024;-49
2022/08/23 06:29:16;;;;;;;6.07;1.33;;;;;;;32.73;33.70;98629.75;5092794;28;20459;-50
2022/08/23 06:31:47;;;;;;;9.57;1.40;;;;;;;32.89;33.78;98634.44;5091655;28;20024;-47
2022/08/23 06:34:13;;;;;;;7.07;2.03;;;;;;;33.09;33.06;98632.63;5091639;28;20047;-48
2022/08/23 06:36:39;;;;;;;8.00;1.63;;;;;;;33.14;32.46;98637.78;5092841;28;20080;-48
2022/08/23 06:39:06;;;;;;;14.20;1.77;;;;;;;33.06;32.63;98639.50;5093078;28;20035;-50
2022/08/23 06:41:32;;;;;;;8.48;1.60;;;;;;;33.10;32.19;98639.63;5092797;28;20076;-48
2022/08/23 06:43:58;;;;;;;8.10;1.40;;;;;;;33.13;32.18;98647.88;5092748;28;20096;-49
2022/08/23 06:46:27;;;;;;;9.73;1.77;;;;;;;33.03;32.50;98638.28;5091308;28;20054;-48
2022/08/23 06:48:53;;;;;;;9.45;1.58;;;;;;;32.90;33.00;98646.88;5092677;28;20021;-49
2022/08/23 06:51:18;;;;;;;9.85;1.50;;;;;;;32.96;32.96;98648.19;5092654;28;20038;-49
2022/08/23 06:53:44;;;;;;;6.88;1.60;;;;;;;32.97;32.92;98639.69;5091234;28;20497;-50
2022/08/23 06:56:10;;;;;;;14.88;2.15;;;;;;;32.99;32.10;98637.41;5091181;28;20028;-49
2022/08/23 06:58:36;;;;;;;4.15;1.20;;;;;;;32.93;32.66;98646.19;5091164;28;20036;-49
2022/08/23 07:01:20;;;;;;;5.47;1.45;;;;;;;32.65;32.73;98644.31;5092410;28;20026;-49
2022/08/23 07:03:45;;;;;;;4.15;1.50;;;;;;;32.73;32.50;98645.28;5091174;28;20490;-50
2022/08/23 07:06:11;;;;;;;6.45;2.25;;;;;;;32.98;32.70;98649.44;5090935;28;20031;-49
2022/08/23 07:08:37;;;;;;;5.13;1.42;;;;;;;33.37;31.64;98643.38;5091068;28;20024;-50
2022/08/23 07:11:03;;;;;;;4.57;1.58;;;;;;;33.88;30.65;98648.00;5092252;28;20020;-49
2022/08/23 07:13:29;;;;;;;3.92;1.27;;;;;;;34.28;29.75;98653.13;5092274;28;20028;-49
2022/08/23 07:15:59;;;;;;;8.60;1.60;;;;;;;34.97;29.01;98641.53;5092138;28;20032;-49
2022/08/23 07:18:25;;;;;;;4.32;1.45;;;;;;;35.48;27.95;98641.19;5090785;28;20039;-50
2022/08/23 07:20:59;;;;;;;4.00;1.50;;;;;;;35.96;27.96;98651.59;5090863;28;20047;-49
2022/08/23 07:23:26;;;;;;;2.83;1.75;;;;;;;36.21;27.00;98646.47;5074008;28;20149;-48
2022/08/23 07:25:52;;;;;;;11.45;6.32;;;;;;;36.21;26.75;98649.22;5090669;28;20024;-50
2022/08/23 07:28:18;;;;;;;9.27;1.70;;;;;;;36.31;26.54;98648.53;5091801;28;20024;-50
2022/08/23 07:30:44;;;;;;;4.05;1.35;;;;;;;36.55;26.65;98652.69;5090685;28;20020;-49
2022/08/23 07:33:10;;;;;;;4.40;1.42;;;;;;;36.96;26.36;98640.97;5091975;28;20398;-48
2022/08/23 07:35:36;;;;;;;7.38;1.50;;;;;;;37.40;25.44;98653.84;5091760;28;20028;-49
2022/08/23 07:38:02;;;;;;;5.03;1.63;;;;;;;37.10;25.19;98645.78;5091902;28;20430;-48
2022/08/23 07:40:27;;;;;;;8.88;2.05;;;;;;;37.01;25.28;98642.56;5091904;28;20165;-48
2022/08/23 07:42:56;;;;;;;9.57;1.88;;;;;;;37.31;24.90;98648.72;5091814;28;20032;-49
2022/08/23 07:45:22;;;;;;;9.07;1.83;;;;;;;37.73;24.75;98646.63;5091751;28;20035;-49
2022/08/23 07:47:48;;;;;;;7.75;1.75;;;;;;;38.10;24.27;98651.91;5092098;28;20481;-48
2022/08/23 07:50:13;;;;;;;9.63;2.25;;;;;;;38.22;23.76;98644.50;5091720;28;20498;-49
2022/08/23 07:52:39;;;;;;;3.72;1.30;;;;;;;38.25;24.11;98646.47;5091811;28;20024;-49
2022/08/23 07:55:06;;;;;;;6.00;1.60;;;;;;;38.58;22.90;98639.91;5091714;28;20028;-48
2022/08/23 07:57:32;;;;;;;5.13;1.70;;;;;;;38.78;23.32;98640.34;5089962;28;20032;-49
2022/08/23 07:59:57;;;;;;;5.88;1.80;;;;;;;38.89;22.98;98640.31;5090460;28;20028;-48
2022/08/23 08:02:23;;;;;;;3.47;1.58;;;;;;;39.18;22.72;98638.38;5091710;28;20059;-50
2022/08/23 08:04:48;;;;;;;6.38;1.55;;;;;;;39.46;22.20;98642.28;5091664;28;20020;-49
2022/08/23 08:07:14;;;;;;;6.47;1.65;;;;;;;39.65;21.88;98641.06;5091589;28;20036;-49
2022/08/23 08:09:40;;;;;;;5.25;1.50;;;;;;;39.88;21.40;98637.84;5091635;28;20028;-50
2022/08/23 08:12:05;;;;;;;5.72;1.75;;;;;;;40.20;20.74;98637.69;5091626;28;20107;-50
2022/08/23 08:14:31;;;;;;;15.52;2.80;;;;;;;40.55;20.89;98624.97;5091576;28;20035;-49
2022/08/23 08:16:59;;;;;;;4.93;1.48;;;;;;;40.45;20.81;98634.84;5091775;28;20028;-48
2022/08/23 08:19:25;;;;;;;5.53;1.60;;;;;;;40.72;20.18;98629.53;5091541;28;20485;-51
2022/08/23 08:21:50;;;;;;;12.07;1.73;;;;;;;40.68;20.64;98634.28;5091522;28;20024;-51
2022/08/23 08:24:16;;;;;;;9.25;1.60;;;;;;;40.33;20.97;98630.59;5090167;28;20073;-48
2022/08/23 08:26:43;;;;;;;10.25;2.00;;;;;;;39.62;21.76;98628.09;5091449;28;20024;-49
2022/08/23 08:29:10;;;;;;;21.20;2.75;;;;;;;38.95;22.06;98625.81;5091226;28;20052;-49
2022/08/23 08:31:38;;;;;;;6.60;2.05;;;;;;;38.79;22.13;98636.41;5091396;28;20020;-51
2022/08/23 08:34:06;;;;;;;18.25;1.83;;;;;;;38.85;22.05;98626.59;5091372;28;20053;-49
2022/08/23 08:36:34;;;;;;;8.10;1.80;;;;;;;39.10;21.53;98634.06;5090011;28;20028;-50
2022/08/23 08:39:04;;;;;;;13.85;2.10;;;;;;;39.13;22.71;98627.78;5091337;28;20107;-50
2022/08/23 08:41:45;;;;;;;57.38;5.45;;;;;;;39.34;21.57;98627.78;5090008;28;20389;-49
2022/08/23 08:44:40;;;;;;;6.47;1.85;;;;;;;39.13;21.67;98625.81;5090006;28;20032;-49
2022/08/23 08:47:41;;;;;;;9.60;1.83;;;;;;;39.00;22.53;98623.88;5092209;28;20113;-49
2022/08/23 08:50:26;;;;;;;13.13;2.25;;;;;;;39.43;21.73;98627.38;5094837;28;20028;-49
2022/08/23 08:53:09;;;;;;;16.02;2.03;;;;;;;39.69;20.98;98628.88;5095222;28;20032;-48
2022/08/23 08:55:59;;;;;;;7.95;1.95;;;;;;;39.62;21.20;98626.13;5094837;28;20108;-50
2022/08/23 08:58:32;;;;;;;9.23;2.08;;;;;;;39.68;21.20;98630.06;5085997;28;20527;-50
2022/08/23 09:00:58;;;;;;;7.22;2.30;;;;;;;40.43;20.51;98628.16;5094767;28;20028;-50
2022/08/23 09:03:31;;;;;;;8.82;2.00;;;;;;;40.75;19.52;98622.47;5094711;28;20024;-48
2022/08/23 09:06:04;;;;;;;6.57;1.80;;;;;;;40.57;19.29;98628.09;5093271;28;20066;-50
2022/08/23 09:08:57;;;;;;;10.98;1.50;;;;;;;41.08;19.25;98631.22;5093398;28;20036;-50
2022/08/23 09:11:52;;;;;;;15.57;2.50;;;;;;;41.62;19.29;98633.50;5094582;28;20515;-50
2022/08/23 09:14:39;;;;;;;7.18;1.98;;;;;;;41.49;19.59;98619.41;5059068;28;20046;-48
2022/08/23 09:17:25;;;;;;;15.00;1.98;;;;;;;41.14;19.68;98615.84;5094651;28;20036;-48
2022/08/23 09:19:57;;;;;;;6.35;1.80;;;;;;;41.50;18.90;98619.03;5078924;28;20505;-53
2022/08/23 09:22:38;;;;;;;19.60;2.95;;;;;;;41.43;19.84;98621.06;5093001;28;20039;-51
2022/08/23 09:25:04;;;;;;;10.52;1.83;;;;;;;41.63;18.72;98618.50;5094240;28;20067;-51
2022/08/23 09:27:30;;;;;;;12.63;2.15;;;;;;;41.62;18.59;98616.97;5092932;28;20122;-51
2022/08/23 09:29:59;;;;;;;15.55;3.03;;;;;;;41.49;19.32;98620.22;5092697;28;20047;-53
2022/08/23 09:32:40;;;;;;;12.95;2.15;;;;;;;41.63;19.47;98619.28;5094104;28;20401;-53
2022/08/23 09:35:23;;;;;;;13.02;1.92;;;;;;;41.74;18.50;98621.13;5094053;28;20480;-53
2022/08/23 09:37:52;;;;;;;7.10;2.05;;;;;;;41.36;19.01;98623.91;5094130;28;20051;-52
2022/08/23 09:40:42;;;;;;;5.93;1.85;;;;;;;41.87;18.49;98611.91;5093945;28;20028;-51
2022/08/23 09:43:18;;;;;;;10.75;2.10;;;;;;;42.57;17.81;98609.81;5093992;28;20027;-52
2022/08/23 09:45:49;;;;;;;12.55;2.75;;;;;;;42.62;18.19;98614.84;5093853;28;20119;-51
2022/08/23 09:48:38;;;;;;;9.68;1.67;;;;;;;42.89;17.41;98612.06;5094155;28;20099;-53
2022/08/23 09:51:15;;;;;;;15.13;2.30;;;;;;;42.69;17.64;98609.97;5093758;28;20493;-52
2022/08/23 09:53:48;;;;;;;13.50;3.08;;;;;;;41.88;19.03;98613.47;5094044;28;20032;-52
2022/08/23 09:56:22;;;;;;;26.83;3.90;;;;;;;41.45;20.69;98600.16;5093753;28;20028;-51
2022/08/23 09:58:52;;;;;;;12.13;1.80;;;;;;;41.34;19.68;98602.28;5093297;28;20031;-52
2022/08/23 10:01:22;;;;;;;19.02;2.72;;;;;;;41.46;19.77;98598.22;5093788;28;20436;-53
2022/08/23 10:04:10;;;;;;;36.15;4.25;;;;;;;42.23;19.52;98603.19;5093459;28;20028;-53
2022/08/23 10:06:37;;;;;;;12.25;1.92;;;;;;;42.38;18.28;98591.91;5093672;28;20072;-52
2022/08/23 10:09:07;;;;;;;16.08;2.30;;;;;;;42.77;17.97;98594.09;5093402;28;20044;-53
2022/08/23 10:11:43;;;;;;;41.85;4.93;;;;;;;42.50;18.99;98588.59;5093369;28;20016;-52
2022/08/23 10:14:17;;;;;;;6.90;1.90;;;;;;;42.22;18.17;98590.59;5093410;28;20027;-53
2022/08/23 10:16:54;;;;;;;6.60;1.85;;;;;;;42.94;17.85;98581.19;5093214;28;20039;-51
2022/08/23 10:19:26;;;;;;;4.40;1.63;;;;;;;43.50;17.22;98583.31;5093307;28;20031;-52
2022/08/23 10:22:19;;;;;;;6.53;1.92;;;;;;;43.74;16.81;98575.75;5093183;28;20490;-52
2022/08/23 10:24:46;;;;;;;7.23;1.90;;;;;;;44.45;16.09;98569.81;5093254;28;20089;-52
2022/08/23 10:30:17;;;;;;;7.18;1.73;;;;;;;44.24;16.01;98555.28;5092845;28;20173;-52
2022/08/23 10:33:07;;;;;;;5.15;1.80;;;;;;;44.36;16.26;98558.59;5093055;28;20115;-52
2022/08/23 10:36:02;;;;;;;9.77;1.92;;;;;;;43.73;16.53;98557.63;5092929;28;20031;-51
2022/08/23 10:38:40;;;;;;;6.13;2.03;;;;;;;43.58;16.59;98553.56;5091579;28;20051;-51
2022/08/23 10:41:30;;;;;;;7.07;1.58;;;;;;;44.18;16.42;98548.72;5092796;28;20527;-50
2022/08/23 10:44:14;;;;;;;9.05;1.83;;;;;;;44.20;16.00;98546.28;5092663;28;20476;-51
2022/08/23 10:46:53;;;;;;;7.10;1.98;;;;;;;44.56;16.02;98547.44;5092740;28;20393;-53
2022/08/23 10:49:21;;;;;;;8.93;2.55;;;;;;;44.86;15.84;98538.75;5092756;28;20076;-52
2022/08/23 10:51:49;;;;;;;7.97;2.03;;;;;;;44.55;15.97;98552.19;5091355;28;20439;-51
2022/08/23 10:54:33;;;;;;;5.25;1.60;;;;;;;44.23;16.48;98544.63;5091304;28;20193;-53
2022/08/23 10:57:00;;;;;;;7.45;2.08;;;;;;;43.97;16.48;98538.09;5092549;28;20039;-51
2022/08/23 10:59:27;;;;;;;4.97;1.40;;;;;;;43.51;16.24;98542.63;5092530;28;20020;-51
2022/08/23 11:02:31;;;;;;;8.05;1.60;;;;;;;43.03;17.06;98536.47;5091140;28;20031;-52
2022/08/23 11:05:06;;;;;;;9.68;1.88;;;;;;;42.51;16.89;98540.50;5091033;28;20028;-52
2022/08/23 11:07:36;;;;;;;3.58;1.50;;;;;;;41.68;17.48;98546.41;5092497;28;20031;-51
2022/08/23 11:10:05;;;;;;;6.03;2.20;;;;;;;41.42;17.76;98536.88;5091603;28;20027;-52
2022/08/23 11:12:36;;;;;;;12.45;1.92;;;;;;;41.62;17.78;98542.56;5091039;28;20024;-53
2022/08/23 11:15:16;;;;;;;6.32;1.65;;;;;;;41.88;17.36;98535.50;5092308;28;20036;-52
2022/08/23 11:17:55;;;;;;;5.78;1.50;;;;;;;41.62;17.41;98550.81;5092333;28;20032;-53
2022/08/23 11:20:48;;;;;;;3.78;1.70;;;;;;;41.76;17.78;98536.84;5092179;28;20042;-52
2022/08/23 11:23:46;;;;;;;6.97;1.50;;;;;;;41.41;17.77;98547.09;5092436;28;20393;-52
2022/08/23 11:26:34;;;;;;;7.13;2.00;;;;;;;40.66;18.27;98536.81;5066796;28;20055;-52
2022/08/23 11:29:06;;;;;;;16.50;2.10;;;;;;;40.47;19.00;98546.44;5092001;28;20044;-51
2022/08/23 11:31:39;;;;;;;9.40;1.95;;;;;;;40.53;19.49;98539.31;5091989;28;20398;-50
2022/08/23 11:34:18;;;;;;;;;;;;;;;40.74;18.89;98538.34;5092463;28;20034;-51
2022/08/23 11:37:16;;;;;;;8.43;1.73;;;;;;;41.22;18.84;98540.25;5073932;28;19961;-49
2022/08/23 11:40:09;;;;;;;5.75;1.50;;;;;;;41.71;18.26;98540.84;5091931;28;20024;-50
2022/08/23 11:42:41;;;;;;;12.02;1.70;;;;;;;41.30;18.41;98536.22;5089681;28;20416;-49
2022/08/23 11:45:22;;;;;;;10.15;1.55;;;;;;;40.99;18.47;98526.31;5090506;28;20497;-49
2022/08/23 11:48:04;;;;;;;37.67;4.60;;;;;;;40.65;19.25;98529.75;5090585;28;20028;-50
2022/08/23 11:50:48;;;;;;;6.63;1.48;;;;;;;40.26;19.11;98537.09;5091827;28;20028;-48
2022/08/23 11:53:45;;;;;;;10.32;1.85;;;;;;;40.26;19.25;98533.56;5092050;28;20111;-49
2022/08/23 11:56:26;;;;;;;3.88;1.38;;;;;;;40.17;19.41;98534.03;5090490;28;20467;-50
2022/08/23 11:59:14;;;;;;;7.53;1.52;;;;;;;39.84;19.84;98516.16;5091684;28;20071;-50